Portada
METAR-TAF:

METAR-TAF

Aeroports :

West Bend Municipal Airport

West Bend, Wisconsin, Estats Units d'Amèrica

latitud: 43-25-20N, longitud: 088-07-41W, altitud: 270 m

Observació

L'informe es va fer fa 21 minuts, a les 18:15 UTC
Vent 9 kt del Oest/Sud-Oest
Temperatura 28°C
Humitat 51%
Pressió 1011 hPa
Visibilitat: 16.1 km
Núvols disperses a una alçada de 5000 ft

METAR: KETB 251815Z AUTO 24009KT 10SM SCT050 28/17 A2985 RMK AO2

Hora: 13:36 (18:36 UTC)


TAF: manca

Observacions i pronòstics meteorològics de més de 4000 aeroports (METAR i TAF).

Les estacions disponibles són els punts grocs i vermells al mapa.

Posi el ratolí al punt desitjat per veure el nom de l'estació.

Feu clic per veure les observacions i els pronòstics meteorològics.

Per canviar el mapa: feu clic els botons verds amb una creu de color negre per apropar; al botó verd amb un guió per allunyar la imatge; o en les fletxes verdes per a mapes adjacents.


METAR-TAF: